Kronborg, Nebraska
Current Conditions -  °F | °C
As of 11:15 AM on Thursday 18 Dec 2014 (Local Time) from KAUH Reporting Station
Overcast Overcast  
Wind Chill: -3°   Ceiling: 700
Heat Index: -3°   Visibility: 10mi
Dew Point: -4°   Wind: 3mph
Humidity: 90%   Direction: 170°S
Pressure: 30.2"   Gusts: NA
Location:  41.0075°N, 98.0042°W
Report Text: KAUH 181715Z AUTO 17003KT 10SM BKN007 OVC037 M03/M04 A3020 RMK AO2 T10271042
Loading
Personal Weather Stations






























Interactive Weather Map New forecast layout! Learn more

10-Day Weather Forecast

Advertisements
Track Severe Weather on mobile